createdAt,value
2018-11-13T00:00:18.798Z,100611.37
2018-11-13T00:02:47.155Z,100610.18
2018-11-13T00:05:15.168Z,100614.13
2018-11-13T00:07:43.733Z,100610.53
2018-11-13T00:10:12.574Z,100617.13
2018-11-13T00:12:40.867Z,100623.70
2018-11-13T00:15:08.939Z,100635.67
2018-11-13T00:17:37.558Z,100649.66
2018-11-13T00:20:07.247Z,100649.91
2018-11-13T00:22:35.324Z,100648.09
2018-11-13T00:25:03.568Z,100637.33
2018-11-13T00:27:32.627Z,100642.59
2018-11-13T00:30:00.926Z,100633.13
2018-11-13T00:32:29.205Z,100630.49
2018-11-13T00:34:57.236Z,100634.44
2018-11-13T00:37:25.451Z,100638.16
2018-11-13T00:39:53.614Z,100644.63
2018-11-13T00:42:21.838Z,100654.41
2018-11-13T00:44:49.794Z,100665.29
2018-11-13T00:47:17.829Z,100672.02
2018-11-13T00:49:45.814Z,100675.61
2018-11-13T00:52:13.716Z,100669.38
2018-11-13T00:54:41.829Z,100671.18
2018-11-13T00:57:10.178Z,100672.60
2018-11-13T00:59:38.245Z,100670.45
2018-11-13T01:02:06.846Z,100672.97
2018-11-13T01:04:34.826Z,100677.50
2018-11-13T01:07:02.936Z,100676.44
2018-11-13T01:09:31.075Z,100676.55
2018-11-13T01:11:59.424Z,100676.68
2018-11-13T01:14:27.120Z,100683.72
2018-11-13T01:16:55.120Z,100682.41
2018-11-13T01:19:23.148Z,100682.06
2018-11-13T01:21:51.087Z,100691.52
2018-11-13T01:24:19.371Z,100692.23
2018-11-13T01:26:47.117Z,100696.77
2018-11-13T01:29:15.191Z,100688.98
2018-11-13T01:31:43.216Z,100676.45
2018-11-13T01:34:11.230Z,100672.61
2018-11-13T01:36:39.319Z,100660.67
2018-11-13T01:39:08.978Z,100663.41
2018-11-13T01:41:37.026Z,100663.17
2018-11-13T01:44:05.793Z,100657.08
2018-11-13T01:46:34.260Z,100654.06
2018-11-13T01:49:02.729Z,100659.47
2018-11-13T01:51:31.215Z,100658.39
2018-11-13T01:53:59.217Z,100658.88
2018-11-13T01:56:27.218Z,100649.19
2018-11-13T01:58:55.244Z,100634.58
2018-11-13T02:01:23.244Z,100620.70
2018-11-13T02:03:51.286Z,100615.10
2018-11-13T02:06:19.289Z,100610.08
2018-11-13T02:08:47.283Z,100619.42
2018-11-13T02:11:15.351Z,100637.94
2018-11-13T02:13:43.353Z,100640.91
2018-11-13T02:16:11.434Z,100652.41
2018-11-13T02:18:39.388Z,100645.72
2018-11-13T02:21:07.405Z,100646.90
2018-11-13T02:23:35.530Z,100652.64
2018-11-13T02:26:03.520Z,100647.25
2018-11-13T02:28:31.508Z,100658.25
2018-11-13T02:31:00.944Z,100662.58
2018-11-13T02:33:29.798Z,100663.06
2018-11-13T02:35:57.781Z,100652.89
2018-11-13T02:38:25.760Z,100667.46
2018-11-13T02:40:53.951Z,100662.09
2018-11-13T02:43:21.992Z,100663.27
2018-11-13T02:45:50.031Z,100652.52
2018-11-13T02:48:18.056Z,100659.46
2018-11-13T02:50:46.115Z,100666.63
2018-11-13T02:53:14.144Z,100663.75
2018-11-13T02:55:42.268Z,100662.78
2018-11-13T02:58:10.275Z,100660.98
2018-11-13T03:00:38.350Z,100653.72
2018-11-13T03:03:06.302Z,100658.59
2018-11-13T03:05:34.292Z,100660.64
2018-11-13T03:08:02.330Z,100671.98
2018-11-13T03:10:30.388Z,100684.89
2018-11-13T03:12:58.398Z,100690.78
2018-11-13T03:15:26.418Z,100699.01
2018-11-13T03:17:54.389Z,100691.02
2018-11-13T03:20:22.397Z,100685.02
2018-11-13T03:22:50.479Z,100678.47
2018-11-13T03:25:19.869Z,100679.53
2018-11-13T03:27:47.973Z,100678.70
2018-11-13T03:30:23.069Z,100671.98
2018-11-13T03:32:51.380Z,100656.20
2018-11-13T03:35:19.406Z,100659.32
2018-11-13T03:37:47.443Z,100661.84
2018-11-13T03:40:15.869Z,100675.00
2018-11-13T03:42:44.639Z,100667.70
2018-11-13T03:45:13.072Z,100667.45
2018-11-13T03:47:41.143Z,100656.94
2018-11-13T03:50:21.209Z,100661.95
2018-11-13T03:52:49.323Z,100669.48
2018-11-13T03:55:18.148Z,100661.71
2018-11-13T03:57:46.894Z,100654.20
2018-11-13T04:00:21.148Z,100657.66
2018-11-13T04:02:49.235Z,100665.41
2018-11-13T04:05:18.073Z,100667.94
2018-11-13T04:07:47.462Z,100672.13
2018-11-13T04:10:16.422Z,100691.84
2018-11-13T04:12:44.740Z,100698.91
2018-11-13T04:15:13.986Z,100708.21
2018-11-13T04:17:42.038Z,100713.00
2018-11-13T04:20:12.295Z,100720.52
2018-11-13T04:22:40.469Z,100716.58
2018-11-13T04:25:08.614Z,100721.92
2018-11-13T04:27:36.719Z,100735.56
2018-11-13T04:30:05.425Z,100741.91
2018-11-13T04:32:33.478Z,100740.83
2018-11-13T04:35:01.438Z,100721.92
2018-11-13T04:37:29.533Z,100725.63
2018-11-13T04:39:57.799Z,100725.15
2018-11-13T04:42:25.921Z,100722.51
2018-11-13T04:44:54.238Z,100726.89
2018-11-13T04:47:22.406Z,100708.00
2018-11-13T04:49:50.590Z,100694.03
2018-11-13T04:52:18.679Z,100694.08
2018-11-13T04:54:46.755Z,100691.05
2018-11-13T04:57:14.777Z,100705.22
2018-11-13T04:59:42.821Z,100716.20
2018-11-13T05:02:10.926Z,100729.14
2018-11-13T05:04:39.183Z,100733.44
2018-11-13T05:07:07.538Z,100727.91
2018-11-13T05:09:35.979Z,100728.45
2018-11-13T05:12:04.507Z,100711.16
2018-11-13T05:14:32.786Z,100704.83
2018-11-13T05:17:01.278Z,100704.60
2018-11-13T05:19:29.949Z,100713.27
2018-11-13T05:21:58.659Z,100711.00
2018-11-13T05:24:27.779Z,100714.95
2018-11-13T05:26:56.595Z,100715.63
2018-11-13T05:29:25.421Z,100714.21
2018-11-13T05:31:53.973Z,100718.87
2018-11-13T05:34:37.831Z,100724.58
2018-11-13T05:37:06.599Z,100742.55
2018-11-13T05:39:35.322Z,100754.88
2018-11-13T05:42:03.798Z,100753.56
2018-11-13T05:44:32.824Z,100747.09
2018-11-13T05:47:08.800Z,100751.43
2018-11-13T05:49:37.420Z,100751.77
2018-11-13T05:52:06.675Z,100755.58
2018-11-13T05:54:35.521Z,100752.02
2018-11-13T05:57:03.939Z,100756.23
2018-11-13T05:59:38.477Z,100759.47
2018-11-13T06:02:07.299Z,100756.10
2018-11-13T06:04:43.167Z,100747.05
2018-11-13T06:07:35.822Z,100744.42
2018-11-13T06:10:06.560Z,100757.56
2018-11-13T06:12:35.445Z,100764.64
2018-11-13T06:15:04.715Z,100762.45
2018-11-13T06:17:37.766Z,100756.60
2018-11-13T06:20:08.101Z,100766.39
2018-11-13T06:22:36.568Z,100771.89
2018-11-13T06:25:06.107Z,100777.66
2018-11-13T06:27:34.726Z,100775.97
2018-11-13T06:30:03.270Z,100776.80
2018-11-13T06:32:32.080Z,100781.58
2018-11-13T06:35:00.942Z,100788.98
2018-11-13T06:37:29.448Z,100789.12
2018-11-13T06:39:58.064Z,100787.58
2018-11-13T06:42:26.618Z,100779.69
2018-11-13T06:44:55.320Z,100781.58
2018-11-13T06:47:23.998Z,100796.05
2018-11-13T06:49:52.559Z,100804.03
2018-11-13T06:52:21.024Z,100798.92
2018-11-13T06:55:09.726Z,100806.46
2018-11-13T06:57:38.516Z,100811.81
2018-11-13T07:00:08.905Z,100799.16
2018-11-13T07:02:38.210Z,100787.95
2018-11-13T07:05:10.432Z,100804.69
2018-11-13T07:07:39.019Z,100802.19
2018-11-13T07:10:08.868Z,100807.55
2018-11-13T07:12:37.498Z,100810.08
2018-11-13T07:15:07.990Z,100806.48
2018-11-13T07:17:37.167Z,100800.02
2018-11-13T07:20:08.001Z,100806.54
2018-11-13T07:22:36.568Z,100808.05
2018-11-13T07:25:05.703Z,100804.39
2018-11-13T07:27:34.194Z,100803.03
2018-11-13T07:30:02.679Z,100815.74
2018-11-13T07:32:31.417Z,100820.17
2018-11-13T07:35:00.120Z,100823.73
2018-11-13T07:37:28.619Z,100831.62
2018-11-13T07:39:57.210Z,100833.00
2018-11-13T07:42:26.000Z,100832.52
2018-11-13T07:44:54.642Z,100827.87
2018-11-13T07:47:23.392Z,100838.28
2018-11-13T07:49:52.120Z,100835.21
2018-11-13T07:52:20.716Z,100839.41
2018-11-13T07:54:49.239Z,100837.61
2018-11-13T07:57:17.879Z,100843.16
2018-11-13T07:59:46.508Z,100847.77
2018-11-13T08:02:15.242Z,100844.20
2018-11-13T08:04:43.838Z,100850.55
2018-11-13T08:07:12.680Z,100854.75
2018-11-13T08:09:41.947Z,100849.00
2018-11-13T08:12:10.638Z,100860.99
2018-11-13T08:14:39.446Z,100859.12
2018-11-13T08:17:08.079Z,100864.28
2018-11-13T08:19:36.709Z,100861.80
2018-11-13T08:22:05.750Z,100864.95
2018-11-13T08:24:34.333Z,100867.48
2018-11-13T08:27:03.041Z,100868.42
2018-11-13T08:29:31.469Z,100869.65
2018-11-13T08:32:00.066Z,100874.91
2018-11-13T08:34:28.514Z,100877.89
2018-11-13T08:36:57.905Z,100871.70
2018-11-13T08:39:26.499Z,100877.31
2018-11-13T08:41:55.065Z,100869.42
2018-11-13T08:44:24.055Z,100867.77
2018-11-13T08:46:52.598Z,100871.08
2018-11-13T08:49:21.163Z,100870.75
2018-11-13T08:51:50.104Z,100870.02
2018-11-13T08:54:18.709Z,100866.33
2018-11-13T08:56:47.259Z,100857.25
2018-11-13T08:59:16.087Z,100862.75
2018-11-13T09:01:44.488Z,100863.34
2018-11-13T09:04:12.859Z,100857.84
2018-11-13T09:06:41.479Z,100853.78
2018-11-13T09:09:12.168Z,100861.79
2018-11-13T09:11:41.278Z,100862.88
2018-11-13T09:14:10.266Z,100864.08
2018-11-13T09:16:38.688Z,100878.56
2018-11-13T09:19:07.521Z,100880.86
2018-11-13T09:21:36.172Z,100885.16
2018-11-13T09:24:04.759Z,100886.47
2018-11-13T09:26:33.250Z,100893.20
2018-11-13T09:29:01.618Z,100890.32
2018-11-13T09:31:30.211Z,100893.55
2018-11-13T09:33:58.639Z,100903.60
2018-11-13T09:36:27.079Z,100892.13
2018-11-13T09:38:55.696Z,100907.31
2018-11-13T09:41:24.138Z,100910.19
2018-11-13T09:43:52.619Z,100906.12
2018-11-13T09:46:21.115Z,100915.59
2018-11-13T09:48:49.585Z,100905.75
2018-11-13T09:51:18.320Z,100922.53
2018-11-13T09:53:47.165Z,100929.46
2018-11-13T09:56:15.518Z,100937.40
2018-11-13T09:58:44.135Z,100935.37
2018-11-13T10:01:12.715Z,100926.75
2018-11-13T10:03:41.741Z,100937.61
2018-11-13T10:06:11.841Z,100948.05
2018-11-13T10:08:40.487Z,100945.41
2018-11-13T10:11:08.978Z,100964.13
2018-11-13T10:13:37.440Z,100953.08
2018-11-13T10:16:05.879Z,100958.59
2018-11-13T10:18:34.733Z,100951.16
2018-11-13T10:21:03.225Z,100957.38
2018-11-13T10:23:31.753Z,100964.34
2018-11-13T10:26:00.235Z,100961.71
2018-11-13T10:28:28.902Z,100965.17
2018-11-13T10:30:57.362Z,100967.22
2018-11-13T10:33:26.108Z,100973.08
2018-11-13T10:35:54.440Z,100969.48
2018-11-13T10:38:23.164Z,100958.70
2018-11-13T10:40:51.781Z,100956.20
2018-11-13T10:43:20.279Z,100954.32
2018-11-13T10:45:48.766Z,100947.00
2018-11-13T10:48:17.300Z,100950.95
2018-11-13T10:50:45.822Z,100956.81
2018-11-13T10:53:14.340Z,100952.02
2018-11-13T10:55:42.779Z,100943.64
2018-11-13T10:58:11.221Z,100948.55
2018-11-13T11:00:45.262Z,100951.19
2018-11-13T11:03:19.158Z,100948.20
2018-11-13T11:05:47.678Z,100947.72
2018-11-13T11:08:16.276Z,100953.59
2018-11-13T11:10:44.901Z,100953.21
2018-11-13T11:13:13.465Z,100955.23
2018-11-13T11:15:41.960Z,100960.98
2018-11-13T11:18:10.602Z,100955.84
2018-11-13T11:20:39.220Z,100950.36
2018-11-13T11:23:07.885Z,100945.19
2018-11-13T11:25:36.459Z,100948.92
2018-11-13T11:28:05.210Z,100943.86
2018-11-13T11:30:33.725Z,100944.10
2018-11-13T11:33:02.240Z,100950.42
2018-11-13T11:35:30.698Z,100945.28
2018-11-13T11:37:59.386Z,100949.97
2018-11-13T11:40:28.086Z,100945.28
2018-11-13T11:42:56.812Z,100940.13
2018-11-13T11:45:25.558Z,100938.95
2018-11-13T11:47:54.256Z,100931.63
2018-11-13T11:50:37.016Z,100923.33
2018-11-13T11:53:05.933Z,100926.06
2018-11-13T11:55:34.558Z,100922.72
2018-11-13T11:58:03.248Z,100919.57
2018-11-13T12:00:34.056Z,100918.25
2018-11-13T12:03:02.699Z,100924.13
2018-11-13T12:05:31.344Z,100924.97
2018-11-13T12:07:59.930Z,100931.31
2018-11-13T12:10:28.585Z,100936.00
2018-11-13T12:12:57.049Z,100945.16
2018-11-13T12:15:25.887Z,100940.86
2018-11-13T12:17:55.160Z,100945.67
2018-11-13T12:20:23.878Z,100943.16
2018-11-13T12:22:53.892Z,100946.97
2018-11-13T12:25:23.149Z,100963.59
2018-11-13T12:27:57.119Z,100975.20
2018-11-13T12:30:26.460Z,100982.14
2018-11-13T12:32:55.041Z,100991.17
2018-11-13T12:35:23.623Z,100991.14
2018-11-13T12:37:53.968Z,100999.45
2018-11-13T12:40:23.849Z,100986.97
2018-11-13T12:42:52.786Z,101005.70
2018-11-13T12:45:21.425Z,101018.00
2018-11-13T12:47:50.400Z,101032.05
2018-11-13T12:50:20.062Z,101022.55
2018-11-13T12:56:03.416Z,101026.84
2018-11-13T12:58:35.221Z,101025.53
2018-11-13T13:01:09.272Z,101019.78
2018-11-13T13:03:37.894Z,101029.64
2018-11-13T13:06:06.801Z,101027.67
2018-11-13T13:08:36.503Z,101035.64
2018-11-13T13:11:07.131Z,101031.95
2018-11-13T13:13:41.506Z,101032.25
2018-11-13T13:16:10.346Z,101038.42
2018-11-13T13:18:42.806Z,101038.42
2018-11-13T13:21:11.569Z,101038.03
2018-11-13T13:23:40.507Z,101035.18
2018-11-13T13:26:11.103Z,101056.61
2018-11-13T13:28:39.950Z,101062.44
2018-11-13T13:31:09.489Z,101073.48
2018-11-13T13:33:38.082Z,101069.89
2018-11-13T13:36:06.722Z,101080.97
2018-11-13T13:38:40.634Z,101091.75
2018-11-13T13:41:10.311Z,101077.93
2018-11-13T13:46:14.611Z,101095.43
2018-11-13T13:48:43.462Z,101088.20
2018-11-13T13:51:12.322Z,101089.88
2018-11-13T13:53:41.113Z,101094.66
2018-11-13T13:56:09.650Z,101086.63
2018-11-13T13:58:38.348Z,101090.39
2018-11-13T14:01:07.084Z,101101.33
2018-11-13T14:03:35.649Z,101101.11
2018-11-13T14:06:04.461Z,101108.52
2018-11-13T14:08:34.966Z,101106.47
2018-11-13T14:11:03.958Z,101110.83
2018-11-13T14:13:33.147Z,101107.87
2018-11-13T14:17:10.579Z,101112.41
2018-11-13T14:19:39.829Z,101111.31
2018-11-13T14:22:09.024Z,101112.47
2018-11-13T14:24:38.169Z,101119.53
2018-11-13T14:27:07.228Z,101117.73
2018-11-13T14:29:36.989Z,101124.95
2018-11-13T14:32:05.507Z,101135.62
2018-11-13T14:34:34.284Z,101130.52
2018-11-13T14:37:03.327Z,101134.91
2018-11-13T14:39:32.007Z,101129.03
2018-11-13T14:42:00.889Z,101143.55
2018-11-13T14:44:29.424Z,101145.13
2018-11-13T14:49:58.277Z,101151.38
2018-11-13T14:52:27.028Z,101165.87
2018-11-13T14:54:55.679Z,101169.20
2018-11-13T14:57:24.344Z,101153.66
2018-11-13T14:59:53.104Z,101175.59
2018-11-13T15:02:21.697Z,101174.95
2018-11-13T15:04:50.270Z,101165.48
2018-11-13T15:07:19.075Z,101178.30
2018-11-13T15:09:47.462Z,101193.84
2018-11-13T15:12:16.345Z,101194.38
2018-11-13T15:14:45.699Z,101200.09
2018-11-13T15:17:14.491Z,101195.79
2018-11-13T15:19:47.247Z,101203.20
2018-11-13T15:22:15.890Z,101208.79
2018-11-13T15:24:44.440Z,101202.56
2018-11-13T15:27:13.131Z,101207.83
2018-11-13T15:29:41.723Z,101202.95
2018-11-13T15:32:10.430Z,101216.11
2018-11-13T15:34:39.649Z,101217.74
2018-11-13T15:37:09.490Z,101221.03
2018-11-13T15:39:37.945Z,101222.88
2018-11-13T15:42:07.359Z,101223.27
2018-11-13T15:44:35.912Z,101231.38
2018-11-13T15:47:05.076Z,101235.98
2018-11-13T15:49:33.811Z,101242.08
2018-11-13T15:55:19.540Z,101253.78
2018-11-13T15:58:03.712Z,101253.26
2018-11-13T16:00:34.432Z,101266.03
2018-11-13T16:03:05.127Z,101271.83
2018-11-13T16:05:46.604Z,101272.52
2018-11-13T16:08:15.450Z,101272.52
2018-11-13T16:10:44.003Z,101279.61
2018-11-13T16:13:12.563Z,101269.92
2018-11-13T16:15:41.442Z,101285.77
2018-11-13T16:18:11.995Z,101285.77
2018-11-13T16:20:40.486Z,101288.44
2018-11-13T16:23:09.075Z,101296.62
2018-11-13T16:25:37.587Z,101299.58
2018-11-13T16:28:06.235Z,101299.96
2018-11-13T16:30:36.113Z,101300.17
2018-11-13T16:33:04.741Z,101303.12
2018-11-13T16:35:33.454Z,101307.42
2018-11-13T16:38:03.301Z,101307.22
2018-11-13T16:40:32.803Z,101320.58
2018-11-13T16:43:02.053Z,101311.16
2018-11-13T16:45:32.110Z,101315.03
2018-11-13T16:48:03.140Z,101323.71
2018-11-13T16:50:40.577Z,101320.28
2018-11-13T16:53:09.114Z,101321.65
2018-11-13T16:55:43.010Z,101316.52
2018-11-13T16:58:12.937Z,101323.73
2018-11-13T17:00:41.588Z,101322.89
2018-11-13T17:03:10.331Z,101333.02
2018-11-13T17:05:38.867Z,101332.56
2018-11-13T17:08:07.339Z,101334.73
2018-11-13T17:10:39.231Z,101338.59
2018-11-13T17:13:07.950Z,101342.17
2018-11-13T17:15:36.739Z,101338.04
2018-11-13T17:18:06.674Z,101339.55
2018-11-13T17:20:35.629Z,101341.50
2018-11-13T17:23:04.460Z,101346.31
2018-11-13T17:25:34.474Z,101347.43
2018-11-13T17:28:02.993Z,101346.40
2018-11-13T17:30:33.051Z,101357.39
2018-11-13T17:33:02.783Z,101348.63
2018-11-13T17:35:32.066Z,101362.72
2018-11-13T17:38:01.361Z,101363.20
2018-11-13T17:40:31.159Z,101365.47
2018-11-13T17:43:00.858Z,101370.44
2018-11-13T17:45:31.383Z,101371.75
2018-11-13T17:47:59.981Z,101376.17
2018-11-13T17:50:31.938Z,101378.69
2018-11-13T17:53:00.577Z,101384.22
2018-11-13T17:55:29.240Z,101379.25
2018-11-13T17:57:59.355Z,101379.55
2018-11-13T18:00:30.125Z,101387.35
2018-11-13T18:02:59.274Z,101390.06
2018-11-13T18:05:28.508Z,101390.53
2018-11-13T18:07:57.899Z,101388.38
2018-11-13T18:10:27.377Z,101390.45
2018-11-13T18:12:55.938Z,101388.02
2018-11-13T18:15:25.880Z,101398.51
2018-11-13T18:17:54.477Z,101395.13
2018-11-13T18:20:30.017Z,101396.45
2018-11-13T18:22:58.581Z,101398.14
2018-11-13T18:25:27.598Z,101397.20
2018-11-13T18:27:57.303Z,101393.92
2018-11-13T18:30:29.923Z,101391.02
2018-11-13T18:32:59.215Z,101398.69
2018-11-13T18:35:29.106Z,101388.01
2018-11-13T18:37:58.573Z,101394.08
2018-11-13T18:40:27.345Z,101399.62
2018-11-13T18:42:57.088Z,101389.32
2018-11-13T18:45:28.974Z,101392.97
2018-11-13T18:47:57.532Z,101393.23
2018-11-13T18:50:27.424Z,101395.22
2018-11-13T18:52:55.984Z,101401.38
2018-11-13T18:55:24.907Z,101398.11
2018-11-13T18:57:53.523Z,101408.89
2018-11-13T19:00:24.306Z,101414.59
2018-11-13T19:02:53.029Z,101410.55
2018-11-13T19:05:22.129Z,101418.53
2018-11-13T19:07:50.871Z,101420.80
2018-11-13T19:10:29.170Z,101416.02
2018-11-13T19:12:58.940Z,101431.08
2018-11-13T19:15:29.032Z,101437.20
2018-11-13T19:17:57.566Z,101441.31
2018-11-13T19:20:26.886Z,101444.05
2018-11-13T19:22:55.881Z,101442.45
2018-11-13T19:25:26.924Z,101442.34
2018-11-13T19:27:56.517Z,101449.92
2018-11-13T19:30:25.423Z,101453.28
2018-11-13T19:32:54.505Z,101454.52
2018-11-13T19:35:23.649Z,101456.56
2018-11-13T19:37:53.067Z,101462.65
2018-11-13T19:40:24.140Z,101465.67
2018-11-13T19:42:54.128Z,101473.25
2018-11-13T19:45:23.397Z,101470.41
2018-11-13T19:47:53.021Z,101474.53
2018-11-13T19:50:23.602Z,101477.08
2018-11-13T19:52:52.637Z,101483.42
2018-11-13T19:55:22.019Z,101492.05
2018-11-13T19:57:51.345Z,101499.70
2018-11-13T20:00:23.644Z,101495.33
2018-11-13T20:02:53.307Z,101500.28
2018-11-13T20:05:23.223Z,101503.28
2018-11-13T20:07:52.188Z,101504.41
2018-11-13T20:10:22.297Z,101507.09
2018-11-13T20:12:52.054Z,101505.97
2018-11-13T20:15:21.733Z,101503.92
2018-11-13T20:17:50.670Z,101510.20
2018-11-13T20:20:21.730Z,101510.85
2018-11-13T20:22:51.457Z,101516.10
2018-11-13T20:25:22.073Z,101521.82
2018-11-13T20:27:51.343Z,101528.08
2018-11-13T20:30:21.862Z,101528.63
2018-11-13T20:32:50.874Z,101527.79
2018-11-13T20:35:19.614Z,101529.45
2018-11-13T20:37:49.466Z,101533.62
2018-11-13T20:40:21.441Z,101536.84
2018-11-13T20:42:51.561Z,101541.13
2018-11-13T20:45:20.613Z,101535.90
2018-11-13T20:47:49.646Z,101534.81
2018-11-13T20:50:20.733Z,101536.20
2018-11-13T20:52:49.475Z,101538.68
2018-11-13T20:55:18.183Z,101537.91
2018-11-13T20:57:46.796Z,101534.05
2018-11-13T21:00:18.573Z,101537.86
2018-11-13T21:02:47.758Z,101532.14
2018-11-13T21:05:16.409Z,101538.70
2018-11-13T21:07:46.445Z,101543.38
2018-11-13T21:10:16.346Z,101545.09
2018-11-13T21:12:45.455Z,101542.17
2018-11-13T21:15:15.673Z,101547.89
2018-11-13T21:17:44.313Z,101543.19
2018-11-13T21:20:14.438Z,101546.78
2018-11-13T21:22:42.746Z,101549.73
2018-11-13T21:25:12.716Z,101548.97
2018-11-13T21:27:41.405Z,101555.28
2018-11-13T21:30:13.176Z,101548.87
2018-11-13T21:32:41.913Z,101554.72
2018-11-13T21:35:11.237Z,101554.52
2018-11-13T21:37:40.042Z,101556.66
2018-11-13T21:40:09.445Z,101560.90
2018-11-13T21:42:37.688Z,101565.47
2018-11-13T21:45:07.203Z,101568.77
2018-11-13T21:47:35.341Z,101566.68
2018-11-13T21:50:04.033Z,101571.55
2018-11-13T21:52:32.051Z,101570.61
2018-11-13T21:55:00.289Z,101568.16
2018-11-13T21:57:28.474Z,101568.63
2018-11-13T21:59:56.664Z,101572.25
2018-11-13T22:02:24.971Z,101576.02
2018-11-13T22:04:53.228Z,101580.12
2018-11-13T22:07:21.675Z,101575.21
2018-11-13T22:09:49.924Z,101572.05
2018-11-13T22:12:18.006Z,101578.12
2018-11-13T22:14:46.142Z,101581.69
2018-11-13T22:17:14.378Z,101582.79
2018-11-13T22:19:42.746Z,101588.94
2018-11-13T22:22:10.943Z,101592.33
2018-11-13T22:24:39.040Z,101598.28
2018-11-13T22:27:07.446Z,101601.99
2018-11-13T22:29:35.907Z,101596.88
2018-11-13T22:32:03.993Z,101596.73
2018-11-13T22:34:32.294Z,101605.41
2018-11-13T22:37:00.514Z,101602.63
2018-11-13T22:39:28.646Z,101599.16
2018-11-13T22:41:56.989Z,101606.09
2018-11-13T22:44:25.145Z,101603.16
2018-11-13T22:46:53.214Z,101606.05
2018-11-13T22:49:21.300Z,101603.70
2018-11-13T22:51:49.491Z,101604.25
2018-11-13T22:54:17.539Z,101606.50
2018-11-13T22:56:45.705Z,101614.89
2018-11-13T22:59:13.677Z,101613.81
2018-11-13T23:01:41.853Z,101617.84
2018-11-13T23:04:09.891Z,101618.77
2018-11-13T23:06:37.902Z,101616.38
2018-11-13T23:09:09.174Z,101615.98
2018-11-13T23:11:37.322Z,101614.81
2018-11-13T23:14:05.917Z,101621.77
2018-11-13T23:16:34.001Z,101625.86
2018-11-13T23:19:01.978Z,101625.39
2018-11-13T23:21:30.199Z,101621.00
2018-11-13T23:23:58.230Z,101622.98
2018-11-13T23:26:26.377Z,101628.06
2018-11-13T23:28:54.347Z,101622.22
2018-11-13T23:31:22.429Z,101627.06
2018-11-13T23:33:50.409Z,101624.44
2018-11-13T23:36:18.547Z,101627.53
2018-11-13T23:38:46.553Z,101639.56
2018-11-13T23:41:14.584Z,101637.17
2018-11-13T23:43:42.532Z,101638.64
2018-11-13T23:46:10.554Z,101642.34
2018-11-13T23:48:38.728Z,101647.73
2018-11-13T23:51:06.739Z,101643.72
2018-11-13T23:53:34.811Z,101643.64
2018-11-13T23:56:02.996Z,101649.66
2018-11-13T23:58:31.090Z,101640.01
